Jackson Hall, Pennsylvania
Current Conditions -  °F | °C
As of 8:53 AM on Tuesday 21 Oct 2014 (Local Time) from KHGR Reporting Station
Haze Haze  
Wind Chill: 51°   Ceiling: Unl
Heat Index: 51°   Visibility: 6mi
Dew Point: 49°   Wind: 3mph
Humidity: 92%   Direction: 110°ESE
Pressure: 29.87"   Gusts: NA
Location:  39.9438°N, 77.6827°W
Report Text: KHGR 211253Z 11003KT 6SM BR CLR 11/09 A2987 RMK AO2 SLP126 T01060094
Loading
Personal Weather Stations






























Interactive Weather Map
Tropical Storm Tracking
New forecast layout! Learn more

10-Day Weather Forecast

Advertisements
Track Severe Weather on mobile